Terminal Aerodrome Forecast
Issued by NWS

Home | Current Version | Previous Version | Text Only | Print | Product List | Glossary On
Versions: 1 2 3 4 5 6 7 8 9 10 11 12 13 14 15 16 17 18 19 20 21 22 23 24 25
000
FTUS45 KBOU 270304 AAA
TAFBJC
TAF AMD
KBJC 270304Z 2703/2724 05006KT P6SM FEW120 SCT220
     FM270500 29008KT P6SM SCT220
      TEMPO 2709/2713 25012G20KT
     FM271900 23014G22KT P6SM SCT220=

USA.gov is the U.S. government's official web portal to all federal, state and local government web resources and services.